createdAt,value
2022-11-22T00:00:25.409Z,68.16
2022-11-22T00:02:58.560Z,68.18
2022-11-22T00:05:31.559Z,68.23
2022-11-22T00:08:05.349Z,68.22
2022-11-22T00:10:38.312Z,68.28
2022-11-22T00:13:11.594Z,68.24
2022-11-22T00:15:44.482Z,68.25
2022-11-22T00:18:17.728Z,68.28
2022-11-22T00:20:50.680Z,68.35
2022-11-22T00:23:24.440Z,68.30
2022-11-22T00:25:57.499Z,68.30
2022-11-22T00:28:30.319Z,68.36
2022-11-22T00:31:03.341Z,68.40
2022-11-22T00:33:36.447Z,68.38
2022-11-22T00:36:09.893Z,68.41
2022-11-22T00:38:42.966Z,68.45
2022-11-22T00:41:16.340Z,68.47
2022-11-22T00:43:49.404Z,68.43
2022-11-22T00:46:22.407Z,68.47
2022-11-22T00:48:55.501Z,68.55
2022-11-22T00:51:28.668Z,68.60
2022-11-22T00:54:01.798Z,68.63
2022-11-22T00:56:35.784Z,68.60
2022-11-22T00:59:08.908Z,68.56
2022-11-22T01:01:41.856Z,68.58
2022-11-22T01:04:15.188Z,68.66
2022-11-22T01:06:48.280Z,68.76
2022-11-22T01:09:23.217Z,68.72
2022-11-22T01:11:56.429Z,68.75
2022-11-22T01:14:29.571Z,68.73
2022-11-22T01:17:03.060Z,68.88
2022-11-22T01:19:36.156Z,68.87
2022-11-22T01:22:09.358Z,68.90
2022-11-22T01:24:42.236Z,68.86
2022-11-22T01:27:15.379Z,68.91
2022-11-22T01:29:48.719Z,68.98
2022-11-22T01:32:21.573Z,68.95
2022-11-22T01:34:54.677Z,68.93
2022-11-22T01:37:27.674Z,68.84
2022-11-22T01:40:00.799Z,68.85
2022-11-22T01:42:46.737Z,68.90
2022-11-22T01:45:42.721Z,68.87
2022-11-22T01:48:36.709Z,68.85
2022-11-22T01:51:13.362Z,68.87
2022-11-22T01:53:46.820Z,68.95
2022-11-22T01:56:22.303Z,69.00
2022-11-22T01:58:58.448Z,69.02
2022-11-22T02:01:32.857Z,68.97
2022-11-22T02:04:08.817Z,69.11
2022-11-22T02:06:45.514Z,69.23
2022-11-22T02:09:19.737Z,69.34
2022-11-22T02:11:55.413Z,69.27
2022-11-22T02:14:30.642Z,69.22
2022-11-22T02:17:03.831Z,69.29
2022-11-22T02:19:43.975Z,69.28
2022-11-22T02:22:23.655Z,69.25
2022-11-22T02:25:00.534Z,69.24
2022-11-22T02:27:33.022Z,69.30
2022-11-22T02:30:06.839Z,69.24
2022-11-22T02:32:39.910Z,69.28
2022-11-22T02:35:21.453Z,69.32
2022-11-22T02:37:57.709Z,69.31
2022-11-22T02:40:33.703Z,69.37
2022-11-22T02:43:10.190Z,69.42
2022-11-22T02:45:43.687Z,69.47
2022-11-22T02:48:18.812Z,69.46
2022-11-22T02:50:51.900Z,69.52
2022-11-22T02:53:24.931Z,69.53
2022-11-22T02:55:58.050Z,69.53
2022-11-22T02:58:31.103Z,69.61
2022-11-22T03:01:04.454Z,69.67
2022-11-22T03:03:37.911Z,69.69
2022-11-22T03:06:11.117Z,69.66
2022-11-22T03:08:44.414Z,69.72
2022-11-22T03:11:17.513Z,69.73
2022-11-22T03:13:50.555Z,69.75
2022-11-22T03:16:23.722Z,69.79
2022-11-22T03:18:56.843Z,69.78
2022-11-22T03:21:30.127Z,69.76
2022-11-22T03:24:03.288Z,69.81
2022-11-22T03:26:37.046Z,69.86
2022-11-22T03:29:10.131Z,69.79
2022-11-22T03:31:43.263Z,69.83
2022-11-22T03:34:17.057Z,69.87
2022-11-22T03:36:50.266Z,69.90
2022-11-22T03:39:23.110Z,69.96
2022-11-22T03:41:56.535Z,70.02
2022-11-22T03:44:29.820Z,70.06
2022-11-22T03:47:02.930Z,70.12
2022-11-22T03:49:36.203Z,70.12
2022-11-22T03:52:09.575Z,70.21
2022-11-22T03:54:42.408Z,70.19
2022-11-22T03:57:17.161Z,70.30
2022-11-22T03:59:49.944Z,70.35
2022-11-22T04:02:22.853Z,70.36
2022-11-22T04:04:55.992Z,70.36
2022-11-22T04:07:29.336Z,70.43
2022-11-22T04:10:02.556Z,70.48
2022-11-22T04:12:35.857Z,70.50
2022-11-22T04:15:10.922Z,70.48
2022-11-22T04:17:45.901Z,70.53
2022-11-22T04:20:38.659Z,70.54
2022-11-22T04:23:13.570Z,70.63
2022-11-22T04:25:48.550Z,70.72
2022-11-22T04:28:35.219Z,70.77
2022-11-22T04:31:19.828Z,70.89
2022-11-22T04:33:52.914Z,70.89
2022-11-22T04:36:25.670Z,70.96
2022-11-22T04:38:58.880Z,70.93
2022-11-22T04:41:33.816Z,70.90
2022-11-22T04:44:24.796Z,70.90
2022-11-22T04:46:57.713Z,70.85
2022-11-22T04:49:31.430Z,70.78
2022-11-22T04:52:22.488Z,70.90
2022-11-22T04:54:55.218Z,70.93
2022-11-22T04:57:28.222Z,70.99
2022-11-22T05:00:01.446Z,71.12
2022-11-22T05:02:35.061Z,71.14
2022-11-22T05:05:10.010Z,71.15
2022-11-22T05:07:46.285Z,71.15
2022-11-22T05:10:25.815Z,71.17
2022-11-22T05:12:54.870Z,71.13
2022-11-22T05:15:28.006Z,71.19
2022-11-22T05:18:01.696Z,71.31
2022-11-22T05:20:35.533Z,71.29
2022-11-22T05:23:26.123Z,71.29
2022-11-22T05:26:03.923Z,71.30
2022-11-22T05:28:36.376Z,71.25
2022-11-22T05:31:14.479Z,71.21
2022-11-22T05:33:48.571Z,71.25
2022-11-22T05:36:22.838Z,71.29
2022-11-22T05:38:56.415Z,71.45
2022-11-22T05:41:30.081Z,71.50
2022-11-22T05:44:03.390Z,71.56
2022-11-22T05:46:36.693Z,71.62
2022-11-22T05:49:09.662Z,71.65
2022-11-22T05:51:42.780Z,71.67
2022-11-22T05:54:15.843Z,71.70
2022-11-22T05:56:49.258Z,71.75
2022-11-22T05:59:23.078Z,71.73
2022-11-22T06:01:56.379Z,71.74
2022-11-22T06:04:29.328Z,71.80
2022-11-22T06:07:08.396Z,71.77
2022-11-22T06:09:37.550Z,71.79
2022-11-22T06:12:11.676Z,71.86
2022-11-22T06:14:46.180Z,71.89
2022-11-22T06:17:19.207Z,71.90
2022-11-22T06:19:52.567Z,71.83
2022-11-22T06:22:25.796Z,71.78
2022-11-22T06:24:58.901Z,71.74
2022-11-22T06:27:31.986Z,71.84
2022-11-22T06:30:05.561Z,71.81
2022-11-22T06:32:38.556Z,71.85
2022-11-22T06:35:12.406Z,71.87
2022-11-22T06:37:45.447Z,71.84
2022-11-22T06:40:19.796Z,71.92
2022-11-22T06:42:54.401Z,71.89
2022-11-22T06:45:27.688Z,71.91
2022-11-22T06:48:01.645Z,71.94
2022-11-22T06:50:34.908Z,71.91
2022-11-22T06:53:21.139Z,72.01
2022-11-22T06:55:51.923Z,72.01
2022-11-22T06:58:17.813Z,72.06
2022-11-22T07:00:51.007Z,72.12
2022-11-22T07:03:24.215Z,72.28
2022-11-22T07:05:57.768Z,72.32
2022-11-22T07:08:30.817Z,72.41
2022-11-22T07:11:06.086Z,72.39
2022-11-22T07:13:39.537Z,72.44
2022-11-22T07:16:14.436Z,72.49
2022-11-22T07:18:47.881Z,72.53
2022-11-22T07:21:22.744Z,72.52
2022-11-22T07:23:57.009Z,72.51
2022-11-22T07:26:30.284Z,72.71
2022-11-22T07:29:03.347Z,72.94
2022-11-22T07:31:36.420Z,73.13
2022-11-22T07:34:09.706Z,73.38
2022-11-22T07:36:42.816Z,73.77
2022-11-22T07:39:15.926Z,73.91
2022-11-22T07:41:48.818Z,73.99
2022-11-22T07:44:22.849Z,74.22
2022-11-22T07:46:55.929Z,74.39
2022-11-22T07:49:29.445Z,74.45
2022-11-22T07:52:02.624Z,74.47
2022-11-22T07:54:35.844Z,74.58
2022-11-22T07:57:08.920Z,74.78
2022-11-22T07:59:42.206Z,74.83
2022-11-22T08:02:15.783Z,74.91
2022-11-22T08:04:48.973Z,74.92
2022-11-22T08:07:22.055Z,74.92
2022-11-22T08:09:55.408Z,74.81
2022-11-22T08:12:28.722Z,74.71
2022-11-22T08:15:01.995Z,74.70
2022-11-22T08:17:35.371Z,74.74
2022-11-22T08:20:11.161Z,74.77
2022-11-22T08:22:45.097Z,74.79
2022-11-22T08:25:18.407Z,74.89
2022-11-22T08:27:51.507Z,75.06
2022-11-22T08:30:24.957Z,75.38
2022-11-22T08:32:58.492Z,75.58
2022-11-22T08:35:31.589Z,75.96
2022-11-22T08:38:04.670Z,76.17
2022-11-22T08:40:40.980Z,76.25
2022-11-22T08:43:13.098Z,76.35
2022-11-22T08:45:46.287Z,76.48
2022-11-22T08:48:22.505Z,76.56
2022-11-22T08:50:55.555Z,76.72
2022-11-22T08:53:30.393Z,76.95
2022-11-22T08:56:04.628Z,77.07
2022-11-22T08:58:38.524Z,77.05
2022-11-22T09:01:14.164Z,77.09
2022-11-22T09:03:48.629Z,77.08
2022-11-22T09:09:15.601Z,77.18
2022-11-22T09:11:32.598Z,77.26
2022-11-22T09:14:05.425Z,77.33
2022-11-22T09:16:38.437Z,77.32
2022-11-22T09:19:11.364Z,77.30
2022-11-22T09:21:44.642Z,77.46
2022-11-22T09:24:18.165Z,77.57
2022-11-22T09:26:51.320Z,77.67
2022-11-22T09:29:25.478Z,77.59
2022-11-22T09:31:58.611Z,77.65
2022-11-22T09:34:31.518Z,77.61
2022-11-22T09:37:04.606Z,77.66
2022-11-22T09:39:37.813Z,77.76
2022-11-22T09:42:20.822Z,77.82
2022-11-22T09:45:11.190Z,78.00
2022-11-22T09:47:48.724Z,78.10
2022-11-22T09:50:25.415Z,78.16
2022-11-22T09:53:01.377Z,78.08
2022-11-22T09:55:38.176Z,78.03
2022-11-22T09:58:15.815Z,78.04
2022-11-22T10:00:52.395Z,78.10
2022-11-22T10:03:29.375Z,78.17
2022-11-22T10:06:05.658Z,78.31
2022-11-22T10:08:42.655Z,78.40
2022-11-22T10:11:20.085Z,78.55
2022-11-22T10:13:56.518Z,78.67
2022-11-22T10:16:32.598Z,78.73
2022-11-22T10:19:11.177Z,78.81
2022-11-22T10:21:46.962Z,79.00
2022-11-22T10:24:20.839Z,79.05
2022-11-22T10:26:56.857Z,79.03
2022-11-22T10:29:33.609Z,79.08
2022-11-22T10:32:10.945Z,79.23
2022-11-22T10:34:54.413Z,79.23
2022-11-22T10:37:31.054Z,79.21
2022-11-22T10:40:12.289Z,79.25
2022-11-22T10:43:02.415Z,79.21
2022-11-22T10:45:38.617Z,79.25
2022-11-22T10:48:18.210Z,79.36
2022-11-22T10:51:00.780Z,79.45
2022-11-22T10:53:49.979Z,79.45
2022-11-22T10:56:26.646Z,79.48
2022-11-22T10:59:06.198Z,79.56
2022-11-22T11:01:42.436Z,79.67
2022-11-22T11:04:16.966Z,79.67
2022-11-22T11:12:10.079Z,79.71
2022-11-22T11:14:46.734Z,79.74
2022-11-22T11:17:22.763Z,79.83
2022-11-22T11:19:59.057Z,79.79
2022-11-22T11:23:12.501Z,79.76
2022-11-22T11:25:31.584Z,79.73
2022-11-22T11:28:08.374Z,79.64
2022-11-22T11:30:47.190Z,79.67
2022-11-22T11:33:31.701Z,79.57
2022-11-22T11:36:08.785Z,79.53
2022-11-22T11:38:53.506Z,79.34
2022-11-22T11:41:29.948Z,79.34
2022-11-22T11:44:04.803Z,79.31
2022-11-22T11:46:49.560Z,79.43
2022-11-22T11:49:26.817Z,79.42
2022-11-22T11:52:02.803Z,79.41
2022-11-22T11:54:39.642Z,79.45
2022-11-22T11:57:15.799Z,79.44
2022-11-22T11:59:51.691Z,79.47
2022-11-22T12:02:26.505Z,79.61
2022-11-22T12:05:01.944Z,79.57
2022-11-22T12:07:45.101Z,79.59
2022-11-22T12:10:34.874Z,79.52
2022-11-22T12:13:14.083Z,79.38
2022-11-22T12:15:52.507Z,79.28
2022-11-22T12:18:39.064Z,79.33
2022-11-22T12:21:20.002Z,79.38
2022-11-22T12:24:13.520Z,79.35
2022-11-22T12:26:32.785Z,79.40
2022-11-22T12:29:06.780Z,79.34
2022-11-22T12:31:43.311Z,79.35
2022-11-22T12:34:20.530Z,79.41
2022-11-22T12:36:57.009Z,79.56
2022-11-22T12:39:33.230Z,79.77
2022-11-22T12:42:10.938Z,79.94
2022-11-22T12:44:47.476Z,80.02
2022-11-22T12:47:23.812Z,79.98
2022-11-22T12:50:00.563Z,79.97
2022-11-22T12:52:37.707Z,80.01
2022-11-22T12:55:15.548Z,79.96
2022-11-22T12:57:52.681Z,79.99
2022-11-22T13:00:28.823Z,80.04
2022-11-22T13:03:07.082Z,80.03
2022-11-22T13:05:44.015Z,80.08
2022-11-22T13:08:24.198Z,80.18
2022-11-22T13:11:00.826Z,80.25
2022-11-22T13:13:37.865Z,80.39
2022-11-22T13:16:13.694Z,80.49
2022-11-22T13:18:50.885Z,80.68
2022-11-22T13:21:28.669Z,80.82
2022-11-22T13:24:16.794Z,80.93
2022-11-22T13:26:55.606Z,80.98
2022-11-22T13:29:31.032Z,81.02
2022-11-22T13:32:10.826Z,81.10
2022-11-22T13:34:46.493Z,81.06
2022-11-22T13:37:20.268Z,81.14
2022-11-22T13:39:54.920Z,81.20
2022-11-22T13:42:29.700Z,81.25
2022-11-22T13:45:23.445Z,81.41
2022-11-22T13:47:57.146Z,81.46
2022-11-22T13:51:04.270Z,81.49
2022-11-22T13:53:40.504Z,81.63
2022-11-22T13:56:50.428Z,81.72
2022-11-22T13:59:24.067Z,81.76
2022-11-22T14:02:05.824Z,81.90
2022-11-22T14:04:45.187Z,82.05
2022-11-22T14:07:37.631Z,82.13
2022-11-22T14:10:30.022Z,82.20
2022-11-22T14:13:28.762Z,82.23
2022-11-22T14:16:10.760Z,82.35
2022-11-22T14:18:52.192Z,82.43
2022-11-22T14:21:43.961Z,82.51
2022-11-22T14:24:22.992Z,82.46
2022-11-22T14:27:00.207Z,82.50
2022-11-22T14:32:55.933Z,82.57
2022-11-22T14:35:37.503Z,82.57
2022-11-22T14:38:57.102Z,82.66
2022-11-22T14:42:25.059Z,82.69
2022-11-22T14:45:21.530Z,82.59
2022-11-22T14:48:03.432Z,82.76
2022-11-22T14:50:44.303Z,82.88
2022-11-22T14:53:37.518Z,82.88
2022-11-22T14:56:20.081Z,82.88
2022-11-22T14:59:01.589Z,82.89
2022-11-22T15:02:12.380Z,82.89
2022-11-22T15:09:14.767Z,82.94
2022-11-22T15:09:14.767Z,82.98
2022-11-22T15:10:48.345Z,83.00
2022-11-22T15:13:37.431Z,83.07
2022-11-22T15:59:16.111Z,83.37
2022-11-22T16:01:50.045Z,83.31
2022-11-22T16:04:27.865Z,83.27
2022-11-22T16:07:01.606Z,83.18
2022-11-22T16:09:37.569Z,83.01
2022-11-22T16:12:30.134Z,83.13
2022-11-22T16:15:22.411Z,83.12
2022-11-22T16:18:00.850Z,83.13
2022-11-22T16:20:35.389Z,83.20
2022-11-22T16:23:21.887Z,83.17
2022-11-22T16:25:59.549Z,83.19
2022-11-22T16:28:35.245Z,83.18
2022-11-22T16:31:17.946Z,83.15
2022-11-22T16:33:52.835Z,83.16
2022-11-22T16:36:28.619Z,83.17
2022-11-22T16:39:03.058Z,83.12
2022-11-22T16:41:48.237Z,83.06
2022-11-22T16:44:26.515Z,82.96
2022-11-22T16:47:02.338Z,82.93
2022-11-22T16:49:36.086Z,82.97
2022-11-22T16:52:50.885Z,83.10
2022-11-22T16:55:59.205Z,83.21
2022-11-22T16:59:13.638Z,83.34
2022-11-22T17:01:47.919Z,83.51
2022-11-22T17:04:27.121Z,83.57
2022-11-22T17:07:00.203Z,83.55
2022-11-22T17:09:34.509Z,83.46
2022-11-22T17:12:12.745Z,83.35
2022-11-22T17:14:47.920Z,83.29
2022-11-22T17:17:22.657Z,83.31
2022-11-22T17:19:55.789Z,83.40
2022-11-22T17:22:29.120Z,83.49
2022-11-22T17:25:02.343Z,83.52
2022-11-22T17:27:36.912Z,83.54
2022-11-22T17:30:12.935Z,83.57
2022-11-22T17:32:46.162Z,83.62
2022-11-22T17:35:19.656Z,83.71
2022-11-22T17:37:56.410Z,83.72
2022-11-22T17:40:29.791Z,83.78
2022-11-22T17:43:03.445Z,83.90
2022-11-22T17:45:39.570Z,83.87
2022-11-22T17:48:13.513Z,83.76
2022-11-22T17:50:46.933Z,83.62
2022-11-22T17:53:20.876Z,83.51
2022-11-22T17:56:10.154Z,83.45
2022-11-22T17:58:29.305Z,83.48
2022-11-22T18:01:06.757Z,83.45
2022-11-22T18:03:40.766Z,83.48
2022-11-22T18:06:15.057Z,83.53
2022-11-22T18:08:48.264Z,83.50
2022-11-22T18:11:21.669Z,83.61
2022-11-22T18:13:55.256Z,83.48
2022-11-22T18:16:30.127Z,83.61
2022-11-22T18:19:03.174Z,83.63
2022-11-22T18:21:39.211Z,83.68
2022-11-22T18:24:12.883Z,83.73
2022-11-22T18:26:46.055Z,83.85
2022-11-22T18:31:54.452Z,84.11
2022-11-22T18:34:28.291Z,84.06
2022-11-22T18:37:03.867Z,84.13
2022-11-22T18:39:39.372Z,84.01
2022-11-22T18:42:15.852Z,83.95
2022-11-22T18:44:49.096Z,83.90
2022-11-22T18:47:22.467Z,83.85
2022-11-22T18:49:55.656Z,83.79
2022-11-22T18:52:30.512Z,83.82
2022-11-22T18:55:03.660Z,83.78
2022-11-22T18:57:36.672Z,83.81
2022-11-22T19:00:12.991Z,83.93
2022-11-22T19:02:46.160Z,84.02
2022-11-22T19:05:24.377Z,83.94
2022-11-22T19:07:56.992Z,83.94
2022-11-22T19:10:29.941Z,84.04
2022-11-22T19:13:03.532Z,84.20
2022-11-22T19:15:36.698Z,84.25
2022-11-22T19:18:09.745Z,84.25
2022-11-22T19:20:59.643Z,84.15
2022-11-22T19:23:19.112Z,84.25
2022-11-22T19:25:52.229Z,84.31
2022-11-22T19:28:28.840Z,84.21
2022-11-22T19:31:07.965Z,84.09
2022-11-22T19:33:41.657Z,84.12
2022-11-22T19:36:16.751Z,84.13
2022-11-22T19:38:50.046Z,84.17
2022-11-22T19:41:25.013Z,84.28
2022-11-22T19:43:58.437Z,84.40
2022-11-22T19:46:32.069Z,84.38
2022-11-22T19:49:06.136Z,84.38
2022-11-22T19:51:39.562Z,84.26
2022-11-22T19:54:13.095Z,84.17
2022-11-22T19:56:46.718Z,84.11
2022-11-22T19:59:19.574Z,84.10
2022-11-22T20:01:52.664Z,84.14
2022-11-22T20:04:25.909Z,84.05
2022-11-22T20:06:59.949Z,83.97
2022-11-22T20:09:33.218Z,83.90
2022-11-22T20:12:06.800Z,83.85
2022-11-22T20:14:40.038Z,83.80
2022-11-22T20:17:13.141Z,83.75
2022-11-22T20:19:46.106Z,83.66
2022-11-22T20:22:19.205Z,83.57
2022-11-22T20:24:52.357Z,83.54
2022-11-22T20:27:25.483Z,83.67
2022-11-22T20:30:00.390Z,83.70
2022-11-22T20:32:34.469Z,83.83
2022-11-22T20:35:12.182Z,83.90
2022-11-22T20:37:45.165Z,83.97
2022-11-22T20:40:20.087Z,84.12
2022-11-22T20:42:53.161Z,84.25
2022-11-22T20:45:26.300Z,84.43
2022-11-22T20:47:59.443Z,84.62
2022-11-22T20:50:32.822Z,84.59
2022-11-22T20:53:06.027Z,84.61
2022-11-22T20:55:40.565Z,84.78
2022-11-22T20:58:13.796Z,84.81
2022-11-22T21:00:47.029Z,84.76
2022-11-22T21:03:20.261Z,84.96
2022-11-22T21:05:55.022Z,85.15
2022-11-22T21:08:27.847Z,85.26
2022-11-22T21:11:09.070Z,85.27
2022-11-22T21:13:42.908Z,85.28
2022-11-22T21:16:23.920Z,85.21
2022-11-22T21:18:52.943Z,85.29
2022-11-22T21:21:26.632Z,85.21
2022-11-22T21:24:01.656Z,85.26
2022-11-22T21:26:35.267Z,85.32
2022-11-22T21:29:16.034Z,85.32
2022-11-22T21:31:45.693Z,85.28
2022-11-22T21:34:18.681Z,85.24
2022-11-22T21:36:51.668Z,85.23
2022-11-22T21:39:24.806Z,85.24
2022-11-22T21:41:58.006Z,85.28
2022-11-22T21:44:31.259Z,85.24
2022-11-22T21:47:05.049Z,85.20
2022-11-22T21:49:38.110Z,85.24
2022-11-22T21:52:11.273Z,85.29
2022-11-22T21:54:44.436Z,85.31
2022-11-22T21:57:17.553Z,85.26
2022-11-22T21:59:50.589Z,85.27
2022-11-22T22:02:23.554Z,85.28
2022-11-22T22:04:56.641Z,85.28
2022-11-22T22:07:51.418Z,85.19
2022-11-22T22:10:05.112Z,85.17
2022-11-22T22:12:39.623Z,85.18
2022-11-22T22:15:14.614Z,85.18
2022-11-22T22:17:48.189Z,85.16
2022-11-22T22:20:24.312Z,85.09
2022-11-22T22:22:57.378Z,85.06
2022-11-22T22:25:30.553Z,85.10
2022-11-22T22:28:03.760Z,85.08
2022-11-22T22:30:37.036Z,85.12
2022-11-22T22:33:10.142Z,85.17
2022-11-22T22:35:43.184Z,85.11
2022-11-22T22:38:16.363Z,85.07
2022-11-22T22:40:55.810Z,85.09
2022-11-22T22:43:31.843Z,85.19
2022-11-22T22:46:10.177Z,85.19
2022-11-22T22:48:44.037Z,85.17
2022-11-22T22:51:18.829Z,85.24
2022-11-22T22:53:52.158Z,85.26
2022-11-22T22:56:26.293Z,85.22
2022-11-22T22:59:01.507Z,85.16
2022-11-22T23:01:34.883Z,85.18
2022-11-22T23:04:08.773Z,85.09
2022-11-22T23:06:42.238Z,85.14
2022-11-22T23:09:15.900Z,85.12
2022-11-22T23:12:06.306Z,85.09
2022-11-22T23:14:40.412Z,85.01
2022-11-22T23:17:13.458Z,85.01
2022-11-22T23:19:46.547Z,85.07
2022-11-22T23:22:25.686Z,85.11
2022-11-22T23:24:55.108Z,85.16
2022-11-22T23:27:28.321Z,85.11
2022-11-22T23:30:01.152Z,85.19
2022-11-22T23:32:34.852Z,85.20
2022-11-22T23:35:09.805Z,85.21
2022-11-22T23:37:43.024Z,85.23
2022-11-22T23:40:17.656Z,85.25
2022-11-22T23:42:50.654Z,85.23
2022-11-22T23:45:23.962Z,85.22
2022-11-22T23:47:57.013Z,85.12
2022-11-22T23:50:34.829Z,85.26
2022-11-22T23:53:05.293Z,85.23
2022-11-22T23:55:38.585Z,85.12
2022-11-22T23:58:11.830Z,84.99
